This is the latest recevied weather packets stored in our database for station/object DL9SEC-13. If no packets are shown the sender has not sent any weather packets the latest 10 day(s).
| Time | Temp. | Humidity | Pressure | Rain* | Wind** | Luminosity | Snow |
|---|---|---|---|---|---|---|---|
| 1777944302 | 11.67° C | 85% | 1014.4 hPa | 0 mm | - | - | - |
| 1777943403 | 12.22° C | 84% | 1014.6 hPa | 0 mm | - | - | - |
| 1777942502 | 12.78° C | 82% | 1014.5 hPa | 0 mm | - | - | - |
| 1777941603 | 13.33° C | 80% | 1014.7 hPa | 0 mm | - | - | - |
| 1777940703 | 13.33° C | 80% | 1014.7 hPa | 0 mm | - | - | - |
| 1777939802 | 13.89° C | 77% | 1014.6 hPa | 0 mm | - | - | - |
| 1777938903 | 13.89° C | 77% | 1014.7 hPa | 0 mm | - | - | - |
| 1777938003 | 13.89° C | 78% | 1014.9 hPa | 0 mm | - | - | - |
| 1777937103 | 13.89° C | 79% | 1015 hPa | 0 mm | - | - | - |
| 1777936202 | 13.89° C | 78% | 1015 hPa | 0 mm | - | - | - |
| 1777935304 | 13.89° C | 77% | 1015 hPa | 0 mm | - | - | - |
| 1777934403 | 14.44° C | 77% | 1015.1 hPa | 0 mm | - | - | - |
| 1777932603 | 14.44° C | 74% | 1015.2 hPa | 0 mm | - | - | - |
| 1777931702 | 15° C | 73% | 1015.4 hPa | 0 mm | - | - | - |
| 1777930803 | 15° C | 72% | 1015.5 hPa | 0 mm | - | - | - |
| 1777929904 | 15.56° C | 72% | 1015.6 hPa | 0 mm | - | - | - |
| 1777929003 | 15.56° C | 72% | 1015.9 hPa | 0 mm | - | - | - |
| 1777928103 | 15.56° C | 71% | 1015.9 hPa | 0 mm | - | - | - |
| 1777927203 | 16.11° C | 69% | 1016.1 hPa | 0 mm | - | - | - |
| 1777925403 | 17.22° C | 59% | 1016.1 hPa | 0 mm | - | - | - |
| 1777924503 | 17.22° C | 58% | 1016.1 hPa | 0 mm | - | - | - |
| 1777923603 | 17.22° C | 58% | 1015.9 hPa | 0 mm | - | - | - |
| 1777922703 | 17.78° C | 57% | 1015.8 hPa | 0 mm | - | - | - |
| 1777921803 | 17.78° C | 56% | 1015.6 hPa | 0 mm | - | - | - |
| 1777920902 | 17.78° C | 56% | 1015.5 hPa | 0 mm | - | - | - |
* Rain latest hour (hover to see other rain measurements)
** Current wind speed in m/s (hover to see current wind gust speed)